createdAt,value
2023-04-02T00:00:57.641Z,97.77
2023-04-02T00:01:57.729Z,91.36
2023-04-02T00:02:57.876Z,88.60
2023-04-02T00:03:57.777Z,92.11
2023-04-02T00:04:57.780Z,89.05
2023-04-02T00:05:57.864Z,89.06
2023-04-02T00:06:57.867Z,81.73
2023-04-02T00:07:57.872Z,82.71
2023-04-02T00:08:57.916Z,76.17
2023-04-02T00:09:57.929Z,77.28
2023-04-02T00:10:57.912Z,71.86
2023-04-02T00:11:57.982Z,73.41
2023-04-02T00:12:57.986Z,77.22
2023-04-02T00:13:58.016Z,75.11
2023-04-02T00:14:58.099Z,70.40
2023-04-02T00:15:58.206Z,77.31
2023-04-02T00:16:58.095Z,82.85
2023-04-02T00:17:58.177Z,76.94
2023-04-02T00:18:58.227Z,79.52
2023-04-02T00:19:58.287Z,70.45
2023-04-02T00:20:58.221Z,78.60
2023-04-02T00:21:58.229Z,76.98
2023-04-02T00:22:58.266Z,71.07
2023-04-02T00:23:58.316Z,75.99
2023-04-02T00:24:58.361Z,77.20
2023-04-02T00:25:58.372Z,84.38
2023-04-02T00:26:58.400Z,91.20
2023-04-02T00:27:58.412Z,92.92
2023-04-02T00:28:58.459Z,105.83
2023-04-02T00:29:58.472Z,117.45
2023-04-02T00:30:58.495Z,121.56
2023-04-02T00:31:58.547Z,124.00
2023-04-02T00:32:58.579Z,132.86
2023-04-02T00:33:58.620Z,133.26
2023-04-02T00:34:58.620Z,136.08
2023-04-02T00:35:58.686Z,140.70
2023-04-02T00:36:58.678Z,151.80
2023-04-02T00:37:58.706Z,155.52
2023-04-02T00:38:58.704Z,126.42
2023-04-02T00:39:58.753Z,122.34
2023-04-02T00:40:58.801Z,124.60
2023-04-02T00:41:58.843Z,127.12
2023-04-02T00:42:58.848Z,128.99
2023-04-02T00:43:58.831Z,124.31
2023-04-02T00:44:58.891Z,115.98
2023-04-02T00:45:58.940Z,117.61
2023-04-02T00:46:58.946Z,111.35
2023-04-02T00:47:59.020Z,108.52
2023-04-02T00:48:59.010Z,112.95
2023-04-02T00:49:59.081Z,115.82
2023-04-02T00:50:59.119Z,110.76
2023-04-02T00:51:59.146Z,106.32
2023-04-02T00:52:59.176Z,93.26
2023-04-02T00:53:59.187Z,73.97
2023-04-02T00:54:59.196Z,86.14
2023-04-02T00:55:59.232Z,94.21
2023-04-02T00:56:59.305Z,95.31
2023-04-02T00:57:59.287Z,102.20
2023-04-02T00:58:59.316Z,104.22
2023-04-02T00:59:59.381Z,111.53
2023-04-02T01:00:59.401Z,119.25
2023-04-02T01:01:59.392Z,117.71
2023-04-02T01:02:59.470Z,123.06
2023-04-02T01:03:59.468Z,122.57
2023-04-02T01:04:59.515Z,129.15
2023-04-02T01:05:59.560Z,131.29
2023-04-02T01:06:59.616Z,128.40
2023-04-02T01:07:59.635Z,120.25
2023-04-02T01:08:59.649Z,120.73
2023-04-02T01:09:59.676Z,118.88
2023-04-02T01:10:59.729Z,122.65
2023-04-02T01:11:59.766Z,122.05
2023-04-02T01:12:59.799Z,122.53
2023-04-02T01:13:59.814Z,126.19
2023-04-02T01:14:59.846Z,113.73
2023-04-02T01:15:59.928Z,120.33
2023-04-02T01:16:59.917Z,129.03
2023-04-02T01:17:59.979Z,139.63
2023-04-02T01:18:59.949Z,130.91
2023-04-02T01:19:59.949Z,130.36
2023-04-02T01:21:00.031Z,123.11
2023-04-02T01:22:00.011Z,118.07
2023-04-02T01:23:00.037Z,127.38
2023-04-02T01:24:00.048Z,133.13
2023-04-02T01:25:00.119Z,147.45
2023-04-02T01:26:00.093Z,139.72
2023-04-02T01:27:00.146Z,114.51
2023-04-02T01:28:00.139Z,112.81
2023-04-02T01:29:00.184Z,124.90
2023-04-02T01:30:00.188Z,128.14
2023-04-02T01:31:00.286Z,120.42
2023-04-02T01:32:00.249Z,127.19
2023-04-02T01:33:00.356Z,132.20
2023-04-02T01:34:00.346Z,134.80
2023-04-02T01:35:00.392Z,137.86
2023-04-02T01:36:00.478Z,130.70
2023-04-02T01:37:00.444Z,127.67
2023-04-02T01:38:00.450Z,131.10
2023-04-02T01:39:00.487Z,131.65
2023-04-02T01:40:00.490Z,136.68
2023-04-02T01:41:00.513Z,142.15
2023-04-02T01:42:00.540Z,150.30
2023-04-02T01:43:00.535Z,150.85
2023-04-02T01:44:00.579Z,150.38
2023-04-02T01:45:00.581Z,143.20
2023-04-02T01:46:00.649Z,134.77
2023-04-02T01:47:00.635Z,138.16
2023-04-02T01:48:00.729Z,131.38
2023-04-02T01:49:00.712Z,136.96
2023-04-02T01:50:00.757Z,149.38
2023-04-02T01:51:00.742Z,143.90
2023-04-02T01:52:00.834Z,134.94
2023-04-02T01:53:00.835Z,135.52
2023-04-02T01:54:00.895Z,145.82
2023-04-02T01:55:00.891Z,154.11
2023-04-02T01:56:00.942Z,167.36
2023-04-02T01:57:00.975Z,159.54
2023-04-02T01:58:00.974Z,166.00
2023-04-02T01:59:01.077Z,172.37
2023-04-02T02:00:01.051Z,171.06
2023-04-02T02:01:01.113Z,176.81
2023-04-02T02:02:01.138Z,182.83
2023-04-02T02:03:01.173Z,184.65
2023-04-02T02:04:01.106Z,174.61
2023-04-02T02:05:01.136Z,174.72
2023-04-02T02:06:01.179Z,172.10
2023-04-02T02:07:01.586Z,165.19
2023-04-02T02:08:01.267Z,159.64
2023-04-02T02:09:01.300Z,153.44
2023-04-02T02:10:01.353Z,157.18
2023-04-02T02:11:01.391Z,165.53
2023-04-02T02:12:01.409Z,175.98
2023-04-02T02:13:01.433Z,178.18
2023-04-02T02:14:01.479Z,193.20
2023-04-02T02:15:01.536Z,201.37
2023-04-02T02:16:01.541Z,203.12
2023-04-02T02:17:01.544Z,208.68
2023-04-02T02:18:01.578Z,213.47
2023-04-02T02:19:01.612Z,214.23
2023-04-02T02:20:01.633Z,220.68
2023-04-02T02:21:01.626Z,230.63
2023-04-02T02:22:01.660Z,217.37
2023-04-02T02:23:01.674Z,210.07
2023-04-02T02:24:01.707Z,222.07
2023-04-02T02:25:01.743Z,213.40
2023-04-02T02:26:01.774Z,210.40
2023-04-02T02:27:01.829Z,223.64
2023-04-02T02:28:01.855Z,234.25
2023-04-02T02:29:01.906Z,232.56
2023-04-02T02:30:01.922Z,241.85
2023-04-02T02:31:01.948Z,244.01
2023-04-02T02:32:01.986Z,240.53
2023-04-02T02:33:02.084Z,247.03
2023-04-02T02:34:02.039Z,250.33
2023-04-02T02:35:02.082Z,238.63
2023-04-02T02:36:02.160Z,216.30
2023-04-02T02:37:02.135Z,209.68
2023-04-02T02:38:02.162Z,209.24
2023-04-02T02:39:02.212Z,203.85
2023-04-02T02:40:02.252Z,209.78
2023-04-02T02:41:02.230Z,209.34
2023-04-02T02:42:02.269Z,211.87
2023-04-02T02:43:02.319Z,220.51
2023-04-02T02:44:02.331Z,221.79
2023-04-02T02:45:02.410Z,222.74
2023-04-02T02:46:02.467Z,228.69
2023-04-02T02:47:02.585Z,229.51
2023-04-02T02:48:02.493Z,228.96
2023-04-02T02:49:02.495Z,230.59
2023-04-02T02:50:02.489Z,235.41
2023-04-02T02:51:02.543Z,224.82
2023-04-02T02:52:02.540Z,226.28
2023-04-02T02:53:02.613Z,233.73
2023-04-02T02:54:02.638Z,233.90
2023-04-02T02:55:02.701Z,238.73
2023-04-02T02:56:02.764Z,240.27
2023-04-02T02:57:02.749Z,243.52
2023-04-02T02:58:02.772Z,248.18
2023-04-02T02:59:02.780Z,250.00
2023-04-02T03:00:02.787Z,243.14
2023-04-02T03:01:02.827Z,226.24
2023-04-02T03:02:02.842Z,204.77
2023-04-02T03:03:02.916Z,203.25
2023-04-02T03:04:03.053Z,208.43
2023-04-02T03:05:02.951Z,217.76
2023-04-02T03:06:02.999Z,216.92
2023-04-02T03:07:03.024Z,224.88
2023-04-02T03:08:03.069Z,228.14
2023-04-02T03:09:03.081Z,226.68
2023-04-02T03:10:03.111Z,237.24
2023-04-02T03:11:03.100Z,234.64
2023-04-02T03:12:03.153Z,235.73
2023-04-02T03:13:03.182Z,239.04
2023-04-02T03:14:03.225Z,240.97
2023-04-02T03:15:03.248Z,239.09
2023-04-02T03:16:03.383Z,229.40
2023-04-02T03:17:03.373Z,219.22
2023-04-02T03:18:03.421Z,218.54
2023-04-02T03:19:03.456Z,211.06
2023-04-02T03:20:03.486Z,218.39
2023-04-02T03:21:03.551Z,223.68
2023-04-02T03:22:03.562Z,229.24
2023-04-02T03:23:03.576Z,238.68
2023-04-02T03:24:03.591Z,238.96
2023-04-02T03:25:03.615Z,238.43
2023-04-02T03:26:03.655Z,227.34
2023-04-02T03:27:03.716Z,223.22
2023-04-02T03:28:03.741Z,231.08
2023-04-02T03:29:03.782Z,234.06
2023-04-02T03:30:03.780Z,230.12
2023-04-02T03:31:03.882Z,233.79
2023-04-02T03:32:03.789Z,221.06
2023-04-02T03:33:03.855Z,219.72
2023-04-02T03:34:03.921Z,220.87
2023-04-02T03:35:03.920Z,231.24
2023-04-02T03:36:03.962Z,234.73
2023-04-02T03:37:03.977Z,224.53
2023-04-02T03:38:03.985Z,219.11
2023-04-02T03:39:04.043Z,219.97
2023-04-02T03:40:04.040Z,218.42
2023-04-02T03:41:04.085Z,211.70
2023-04-02T03:42:04.122Z,211.57
2023-04-02T03:43:04.181Z,222.30
2023-04-02T03:44:04.154Z,232.95
2023-04-02T03:45:04.182Z,240.08
2023-04-02T03:46:04.292Z,250.13
2023-04-02T03:47:04.303Z,245.16
2023-04-02T03:48:04.324Z,237.42
2023-04-02T03:49:04.305Z,238.42
2023-04-02T03:50:04.351Z,246.78
2023-04-02T03:51:04.380Z,244.74
2023-04-02T03:52:04.394Z,249.88
2023-04-02T03:53:04.441Z,246.19
2023-04-02T03:54:04.458Z,250.07
2023-04-02T03:55:04.496Z,248.74
2023-04-02T03:56:04.490Z,251.80
2023-04-02T03:57:04.562Z,250.00
2023-04-02T03:58:04.533Z,250.00
2023-04-02T03:59:04.577Z,247.16
2023-04-02T04:00:04.631Z,239.52
2023-04-02T04:01:04.626Z,240.10
2023-04-02T04:02:04.716Z,235.35
2023-04-02T04:03:04.769Z,233.04
2023-04-02T04:04:04.773Z,232.53
2023-04-02T04:05:04.750Z,229.62
2023-04-02T04:06:04.745Z,222.83
2023-04-02T04:07:04.771Z,233.04
2023-04-02T04:08:04.774Z,238.59
2023-04-02T04:09:04.838Z,241.52
2023-04-02T04:10:04.985Z,250.00
2023-04-02T04:11:04.943Z,246.78
2023-04-02T04:12:04.936Z,245.81
2023-04-02T04:13:04.970Z,249.49
2023-04-02T04:14:05.041Z,245.87
2023-04-02T04:15:05.092Z,245.46
2023-04-02T04:16:05.220Z,248.75
2023-04-02T04:17:05.068Z,244.48
2023-04-02T04:18:05.117Z,247.40
2023-04-02T04:19:05.230Z,247.81
2023-04-02T04:20:05.177Z,246.02
2023-04-02T04:21:05.239Z,250.10
2023-04-02T04:22:05.248Z,249.92
2023-04-02T04:23:05.312Z,250.00
2023-04-02T04:24:05.311Z,243.70
2023-04-02T04:25:05.384Z,247.54
2023-04-02T04:26:05.425Z,243.92
2023-04-02T04:27:05.454Z,235.90
2023-04-02T04:28:05.703Z,228.40
2023-04-02T04:29:05.556Z,229.70
2023-04-02T04:30:05.576Z,221.75
2023-04-02T04:31:05.650Z,216.44
2023-04-02T04:32:05.641Z,223.63
2023-04-02T04:33:05.781Z,223.91
2023-04-02T04:34:05.667Z,223.00
2023-04-02T04:35:05.715Z,223.60
2023-04-02T04:36:05.750Z,218.26
2023-04-02T04:37:05.743Z,218.99
2023-04-02T04:38:05.768Z,215.81
2023-04-02T04:39:05.820Z,216.78
2023-04-02T04:40:05.828Z,217.16
2023-04-02T04:41:05.878Z,226.36
2023-04-02T04:42:05.903Z,230.96
2023-04-02T04:43:05.976Z,228.27
2023-04-02T04:44:05.979Z,221.96
2023-04-02T04:45:05.976Z,224.87
2023-04-02T04:46:06.018Z,230.26
2023-04-02T04:47:06.018Z,232.25
2023-04-02T04:48:06.083Z,229.89
2023-04-02T04:49:06.073Z,227.27
2023-04-02T04:50:06.169Z,216.93
2023-04-02T04:51:06.163Z,218.25
2023-04-02T04:52:06.203Z,222.53
2023-04-02T04:53:06.211Z,232.23
2023-04-02T04:54:06.262Z,237.23
2023-04-02T04:55:06.268Z,241.34
2023-04-02T04:56:18.756Z,250.09
2023-04-02T04:57:07.346Z,245.41
2023-04-02T04:58:06.302Z,238.00
2023-04-02T04:59:06.381Z,239.70
2023-04-02T05:00:06.312Z,242.49
2023-04-02T05:01:06.339Z,235.89
2023-04-02T05:02:06.306Z,228.28
2023-04-02T05:03:06.290Z,230.94
2023-04-02T05:04:06.260Z,225.83
2023-04-02T05:05:06.244Z,217.18
2023-04-02T05:06:06.260Z,218.73
2023-04-02T05:07:06.269Z,214.66
2023-04-02T05:08:06.284Z,217.92
2023-04-02T05:09:06.228Z,218.72
2023-04-02T05:10:06.202Z,216.83
2023-04-02T05:11:06.263Z,219.41
2023-04-02T05:12:06.275Z,214.58
2023-04-02T05:13:06.331Z,210.89
2023-04-02T05:14:06.356Z,212.51
2023-04-02T05:15:06.397Z,207.53
2023-04-02T05:16:06.441Z,197.77
2023-04-02T05:17:06.418Z,188.98
2023-04-02T05:18:06.509Z,178.51
2023-04-02T05:19:06.496Z,171.93
2023-04-02T05:20:06.519Z,169.19
2023-04-02T05:21:06.608Z,171.03
2023-04-02T05:22:06.568Z,172.76
2023-04-02T05:23:06.591Z,181.96
2023-04-02T05:24:06.645Z,192.33
2023-04-02T05:25:06.685Z,202.54
2023-04-02T05:26:06.737Z,206.95
2023-04-02T05:27:06.792Z,219.52
2023-04-02T05:28:06.814Z,228.45
2023-04-02T05:29:06.794Z,205.24
2023-04-02T05:30:06.862Z,199.28
2023-04-02T05:31:06.930Z,205.86
2023-04-02T05:32:06.911Z,202.44
2023-04-02T05:33:06.957Z,193.99
2023-04-02T05:34:06.937Z,190.61
2023-04-02T05:35:07.001Z,189.17
2023-04-02T05:36:07.050Z,184.87
2023-04-02T05:37:07.306Z,187.58
2023-04-02T05:38:07.117Z,190.80
2023-04-02T05:39:07.157Z,194.19
2023-04-02T05:40:07.186Z,196.45
2023-04-02T05:41:07.200Z,198.46
2023-04-02T05:42:07.261Z,197.56
2023-04-02T05:43:07.302Z,194.22
2023-04-02T05:44:07.352Z,197.85
2023-04-02T05:45:07.323Z,197.07
2023-04-02T05:46:07.388Z,193.89
2023-04-02T05:47:07.386Z,199.39
2023-04-02T05:48:07.460Z,199.89
2023-04-02T05:49:07.414Z,194.91
2023-04-02T05:50:07.451Z,197.32
2023-04-02T05:51:07.428Z,201.89
2023-04-02T05:52:07.471Z,202.39
2023-04-02T05:53:07.490Z,212.69
2023-04-02T05:54:07.545Z,218.97
2023-04-02T05:55:07.546Z,223.42
2023-04-02T05:56:07.635Z,227.73
2023-04-02T05:57:07.784Z,231.13
2023-04-02T05:59:08.660Z,217.33
2023-04-02T06:00:07.642Z,216.36
2023-04-02T06:01:07.685Z,216.89
2023-04-02T06:02:07.729Z,218.23
2023-04-02T06:03:07.880Z,225.11
2023-04-02T06:04:07.665Z,230.23
2023-04-02T06:05:07.624Z,229.32
2023-04-02T06:06:07.595Z,219.79
2023-04-02T06:07:07.624Z,218.20
2023-04-02T06:08:07.627Z,205.42
2023-04-02T06:09:07.593Z,205.70
2023-04-02T06:10:07.611Z,217.98
2023-04-02T06:11:07.589Z,215.77
2023-04-02T06:12:07.581Z,209.24
2023-04-02T06:13:07.580Z,197.17
2023-04-02T06:14:07.614Z,196.62
2023-04-02T06:15:07.606Z,200.59
2023-04-02T06:16:07.668Z,199.33
2023-04-02T06:17:07.707Z,199.87
2023-04-02T06:18:07.763Z,202.16
2023-04-02T06:19:07.746Z,206.57
2023-04-02T06:20:07.776Z,210.86
2023-04-02T06:21:07.820Z,214.36
2023-04-02T06:22:07.836Z,213.89
2023-04-02T06:23:07.838Z,216.48
2023-04-02T06:24:07.915Z,217.90
2023-04-02T06:25:07.933Z,202.88
2023-04-02T06:26:07.971Z,207.69
2023-04-02T06:27:07.991Z,214.54
2023-04-02T06:28:08.041Z,211.18
2023-04-02T06:29:08.098Z,207.81
2023-04-02T06:30:08.102Z,203.92
2023-04-02T06:31:08.138Z,205.31
2023-04-02T06:32:08.173Z,212.74
2023-04-02T06:33:08.180Z,215.78
2023-04-02T06:34:08.237Z,212.57
2023-04-02T06:35:08.217Z,202.67
2023-04-02T06:36:08.319Z,189.70
2023-04-02T06:37:08.321Z,183.29
2023-04-02T06:38:08.355Z,191.25
2023-04-02T06:39:08.390Z,198.61
2023-04-02T06:40:08.426Z,207.67
2023-04-02T06:41:08.492Z,209.87
2023-04-02T06:42:08.486Z,209.97
2023-04-02T06:43:08.551Z,207.54
2023-04-02T06:44:08.546Z,207.56
2023-04-02T06:45:08.564Z,209.00
2023-04-02T06:46:08.726Z,207.38
2023-04-02T06:47:08.600Z,196.53
2023-04-02T06:48:08.722Z,192.17
2023-04-02T06:49:08.664Z,196.65
2023-04-02T06:50:08.700Z,198.79
2023-04-02T06:51:08.739Z,190.36
2023-04-02T06:52:08.724Z,177.79
2023-04-02T06:53:08.741Z,175.19
2023-04-02T06:54:08.780Z,175.56
2023-04-02T06:55:08.881Z,174.62
2023-04-02T06:56:08.831Z,163.36
2023-04-02T06:57:08.882Z,167.12
2023-04-02T06:58:08.900Z,176.81
2023-04-02T06:59:08.936Z,171.05
2023-04-02T07:00:08.912Z,168.11
2023-04-02T07:01:09.003Z,176.35
2023-04-02T07:02:08.967Z,179.03
2023-04-02T07:03:09.068Z,176.30
2023-04-02T07:04:09.054Z,158.26
2023-04-02T07:05:09.269Z,156.29
2023-04-02T07:06:09.133Z,145.95
2023-04-02T07:07:09.143Z,143.70
2023-04-02T07:08:09.152Z,142.62
2023-04-02T07:09:09.186Z,135.46
2023-04-02T07:10:09.293Z,105.25
2023-04-02T07:11:09.265Z,90.23
2023-04-02T07:12:09.341Z,91.36
2023-04-02T07:13:09.344Z,76.48
2023-04-02T07:14:09.370Z,56.01
2023-04-02T07:15:09.387Z,38.05
2023-04-02T07:16:09.542Z,25.06
2023-04-02T07:17:09.489Z,12.11
2023-04-02T07:18:09.586Z,0.93
2023-04-02T07:19:09.559Z,7.59
2023-04-02T07:20:09.562Z,12.88
2023-04-02T07:21:09.598Z,25.00
2023-04-02T07:22:09.642Z,26.81
2023-04-02T07:23:09.690Z,26.95
2023-04-02T07:24:09.694Z,24.78
2023-04-02T07:25:09.720Z,22.62
2023-04-02T07:26:09.764Z,24.65
2023-04-02T07:27:09.801Z,30.22
2023-04-02T07:28:09.763Z,38.22
2023-04-02T07:29:09.852Z,43.95
2023-04-02T07:30:09.853Z,40.37
2023-04-02T07:31:09.916Z,36.59
2023-04-02T07:32:09.907Z,54.54
2023-04-02T07:33:09.990Z,51.41
2023-04-02T07:34:10.033Z,37.01
2023-04-02T07:35:10.059Z,27.48
2023-04-02T07:36:10.089Z,25.51
2023-04-02T07:37:10.106Z,25.90
2023-04-02T07:38:10.138Z,22.94
2023-04-02T07:39:10.187Z,25.00
2023-04-02T07:40:10.215Z,25.75
2023-04-02T07:41:10.265Z,34.69
2023-04-02T07:42:10.273Z,45.50
2023-04-02T07:43:10.320Z,54.13
2023-04-02T07:44:10.346Z,57.47
2023-04-02T07:45:10.355Z,64.32
2023-04-02T07:46:10.458Z,72.54
2023-04-02T07:47:10.466Z,74.54
2023-04-02T07:48:10.473Z,75.48
2023-04-02T07:49:10.497Z,77.01
2023-04-02T07:50:10.498Z,74.53
2023-04-02T07:51:10.535Z,74.18
2023-04-02T07:52:10.559Z,70.07
2023-04-02T07:53:10.573Z,69.38
2023-04-02T07:54:10.613Z,52.79
2023-04-02T07:55:10.632Z,47.76
2023-04-02T07:56:10.687Z,39.13
2023-04-02T07:57:10.748Z,36.86
2023-04-02T07:58:10.898Z,32.95
2023-04-02T07:59:10.944Z,0.00
2023-04-02T08:00:10.964Z,0.00
2023-04-02T08:01:11.022Z,0.00
2023-04-02T08:02:11.075Z,0.00
2023-04-02T08:03:11.113Z,0.00
2023-04-02T08:04:11.113Z,0.00
2023-04-02T08:05:11.049Z,0.00
2023-04-02T08:06:11.095Z,5.36
2023-04-02T08:07:11.120Z,10.38
2023-04-02T08:08:11.145Z,11.58
2023-04-02T08:09:11.225Z,24.94
2023-04-02T08:10:11.240Z,30.60
2023-04-02T08:11:11.278Z,46.40
2023-04-02T08:12:11.294Z,61.75
2023-04-02T08:13:11.341Z,53.38
2023-04-02T08:14:11.356Z,61.74
2023-04-02T08:15:11.408Z,70.12
2023-04-02T08:16:11.534Z,78.28
2023-04-02T08:17:11.576Z,75.81
2023-04-02T08:18:11.519Z,75.87
2023-04-02T08:19:11.544Z,74.14
2023-04-02T08:20:11.558Z,63.14
2023-04-02T08:21:11.613Z,46.63
2023-04-02T08:22:11.647Z,44.59
2023-04-02T08:23:11.669Z,38.02
2023-04-02T08:24:11.727Z,27.67
2023-04-02T08:25:11.776Z,23.23
2023-04-02T08:26:11.817Z,27.57
2023-04-02T08:27:11.863Z,30.59
2023-04-02T08:28:11.891Z,38.37
2023-04-02T08:29:11.934Z,51.42
2023-04-02T08:30:11.977Z,66.93
2023-04-02T08:31:12.057Z,76.92
2023-04-02T08:32:12.091Z,66.65
2023-04-02T08:33:12.131Z,53.99
2023-04-02T08:34:12.102Z,45.03
2023-04-02T08:35:12.113Z,25.00
2023-04-02T08:36:12.146Z,34.17
2023-04-02T08:37:12.164Z,15.64
2023-04-02T08:38:12.196Z,11.67
2023-04-02T08:39:12.242Z,5.96
2023-04-02T08:40:12.236Z,9.55
2023-04-02T08:41:12.243Z,19.80
2023-04-02T08:42:12.283Z,27.21
2023-04-02T08:43:12.321Z,23.92
2023-04-02T08:44:12.309Z,22.70
2023-04-02T08:45:24.207Z,25.96
2023-04-02T08:46:13.375Z,14.69
2023-04-02T08:47:12.383Z,9.53
2023-04-02T08:48:12.394Z,5.82
2023-04-02T08:49:12.365Z,7.80
2023-04-02T08:50:12.365Z,18.84
2023-04-02T08:51:12.335Z,11.07
2023-04-02T08:52:12.347Z,5.35
2023-04-02T08:53:12.312Z,0.00
2023-04-02T08:54:12.339Z,0.00
2023-04-02T08:55:12.343Z,0.00
2023-04-02T08:56:12.313Z,0.00
2023-04-02T08:57:12.345Z,0.00
2023-04-02T08:58:12.294Z,0.00
2023-04-02T08:59:12.252Z,0.00
2023-04-02T09:00:12.254Z,9.42
2023-04-02T09:01:12.260Z,22.31
2023-04-02T09:02:12.274Z,21.27
2023-04-02T09:03:12.299Z,20.46
2023-04-02T09:04:12.359Z,13.85
2023-04-02T09:05:12.626Z,17.15
2023-04-02T09:06:13.388Z,21.85
2023-04-02T09:07:12.506Z,29.25
2023-04-02T09:08:12.553Z,24.12
2023-04-02T09:09:12.627Z,27.87
2023-04-02T09:10:12.633Z,20.50
2023-04-02T09:11:12.671Z,15.52
2023-04-02T09:12:12.722Z,18.20
2023-04-02T09:13:12.745Z,20.88
2023-04-02T09:14:12.758Z,28.22
2023-04-02T09:15:12.771Z,40.56
2023-04-02T09:16:12.849Z,40.16
2023-04-02T09:17:12.823Z,32.53
2023-04-02T09:18:12.904Z,33.18
2023-04-02T09:19:12.893Z,32.41
2023-04-02T09:20:12.935Z,27.05
2023-04-02T09:21:12.976Z,21.11
2023-04-02T09:22:12.965Z,20.21
2023-04-02T09:23:13.018Z,20.24
2023-04-02T09:24:13.078Z,18.63
2023-04-02T09:25:13.081Z,21.96
2023-04-02T09:26:13.133Z,12.15
2023-04-02T09:27:13.175Z,11.61
2023-04-02T09:28:13.189Z,14.28
2023-04-02T09:29:13.305Z,12.92
2023-04-02T09:30:13.275Z,15.03
2023-04-02T09:31:13.396Z,15.68
2023-04-02T09:32:13.326Z,18.38
2023-04-02T09:33:13.341Z,25.34
2023-04-02T09:34:13.352Z,21.49
2023-04-02T09:35:24.783Z,20.44
2023-04-02T09:36:16.071Z,17.73
2023-04-02T09:37:13.370Z,20.56
2023-04-02T09:38:13.371Z,22.04
2023-04-02T09:39:13.366Z,30.85
2023-04-02T09:40:13.325Z,38.91
2023-04-02T09:41:13.334Z,39.26
2023-04-02T09:42:13.345Z,37.70
2023-04-02T09:43:13.349Z,38.36
2023-04-02T09:44:13.334Z,42.66
2023-04-02T09:45:13.312Z,34.30
2023-04-02T09:46:13.340Z,36.58
2023-04-02T09:47:13.313Z,32.17
2023-04-02T09:48:13.355Z,26.84
2023-04-02T09:49:13.288Z,24.72
2023-04-02T09:50:13.299Z,26.44
2023-04-02T09:51:13.310Z,28.43
2023-04-02T09:52:13.283Z,27.79
2023-04-02T09:53:13.264Z,28.88
2023-04-02T09:54:13.250Z,30.38
2023-04-02T09:55:13.227Z,30.98
2023-04-02T09:56:13.244Z,31.47
2023-04-02T09:57:13.292Z,33.44
2023-04-02T09:58:13.249Z,32.64
2023-04-02T09:59:13.231Z,32.98
2023-04-02T10:00:25.384Z,35.39
2023-04-02T10:01:14.230Z,35.46
2023-04-02T10:02:13.189Z,35.66
2023-04-02T10:03:13.177Z,34.10
2023-04-02T10:04:13.258Z,36.19
2023-04-02T10:05:13.716Z,35.20
2023-04-02T10:06:13.193Z,33.20
2023-04-02T10:07:13.202Z,29.95
2023-04-02T10:08:13.205Z,22.98
2023-04-02T10:09:13.124Z,25.24
2023-04-02T10:10:13.231Z,33.22
2023-04-02T10:11:13.153Z,35.47
2023-04-02T10:12:13.152Z,34.38
2023-04-02T10:13:13.207Z,30.78
2023-04-02T10:14:13.240Z,37.68
2023-04-02T10:15:13.240Z,38.33
2023-04-02T10:16:13.358Z,38.80
2023-04-02T10:17:13.502Z,42.56
2023-04-02T10:18:13.308Z,52.47
2023-04-02T10:19:13.327Z,55.26
2023-04-02T10:20:13.434Z,50.66
2023-04-02T10:21:13.352Z,48.03
2023-04-02T10:22:13.402Z,46.34
2023-04-02T10:23:13.445Z,42.84
2023-04-02T10:24:13.450Z,42.85
2023-04-02T10:25:13.468Z,47.64
2023-04-02T10:26:13.474Z,51.31
2023-04-02T10:27:13.568Z,50.91
2023-04-02T10:28:13.549Z,49.41
2023-04-02T10:29:13.580Z,45.41
2023-04-02T10:30:13.594Z,45.05
2023-04-02T10:31:13.670Z,41.27
2023-04-02T10:32:13.660Z,44.60
2023-04-02T10:33:13.690Z,43.22
2023-04-02T10:34:13.724Z,39.72
2023-04-02T10:35:13.752Z,43.14
2023-04-02T10:36:13.823Z,48.76
2023-04-02T10:37:13.848Z,45.05
2023-04-02T10:38:13.799Z,46.79
2023-04-02T10:39:13.856Z,45.81
2023-04-02T10:40:13.884Z,38.78
2023-04-02T10:41:13.900Z,32.15
2023-04-02T10:42:13.883Z,28.99
2023-04-02T10:43:13.940Z,25.44
2023-04-02T10:44:20.234Z,29.46
2023-04-02T10:45:14.922Z,29.49
2023-04-02T10:46:13.941Z,29.51
2023-04-02T10:47:13.927Z,30.34
2023-04-02T10:48:13.944Z,30.99
2023-04-02T10:49:13.928Z,33.75
2023-04-02T10:50:13.883Z,34.08
2023-04-02T10:51:14.191Z,34.02
2023-04-02T10:52:13.890Z,35.93
2023-04-02T10:53:13.844Z,37.37
2023-04-02T10:54:13.917Z,31.60
2023-04-02T10:55:13.859Z,35.10
2023-04-02T10:56:13.843Z,38.73
2023-04-02T10:57:13.887Z,34.68
2023-04-02T10:58:13.887Z,32.66
2023-04-02T10:59:13.903Z,28.11
2023-04-02T11:00:13.932Z,25.53
2023-04-02T11:01:13.965Z,31.21
2023-04-02T11:02:14.024Z,34.63
2023-04-02T11:03:14.150Z,29.53
2023-04-02T11:04:14.342Z,26.50
2023-04-02T11:05:14.165Z,27.96
2023-04-02T11:06:14.125Z,28.34
2023-04-02T11:07:14.988Z,27.69
2023-04-02T11:08:15.176Z,27.99
2023-04-02T11:09:14.199Z,27.94
2023-04-02T11:10:14.238Z,29.10
2023-04-02T11:11:14.315Z,25.23
2023-04-02T11:12:14.323Z,28.35
2023-04-02T11:13:14.338Z,28.74
2023-04-02T11:14:14.410Z,33.64
2023-04-02T11:15:14.421Z,37.46
2023-04-02T11:16:14.528Z,40.19
2023-04-02T11:17:14.453Z,39.84
2023-04-02T11:18:14.466Z,29.68
2023-04-02T11:19:14.531Z,21.20
2023-04-02T11:20:14.554Z,25.01
2023-04-02T11:21:14.582Z,24.64
2023-04-02T11:22:14.649Z,25.57
2023-04-02T11:23:14.655Z,30.50
2023-04-02T11:24:14.701Z,31.57
2023-04-02T11:25:14.742Z,29.62
2023-04-02T11:26:14.786Z,27.97
2023-04-02T11:27:14.822Z,28.72
2023-04-02T11:28:14.828Z,30.34
2023-04-02T11:29:14.855Z,34.30
2023-04-02T11:30:14.878Z,39.05
2023-04-02T11:31:15.013Z,39.78
2023-04-02T11:32:15.001Z,39.65
2023-04-02T11:33:18.660Z,41.08
2023-04-02T11:34:16.022Z,32.09
2023-04-02T11:35:15.016Z,27.31
2023-04-02T11:36:15.076Z,26.00
2023-04-02T11:37:14.990Z,30.17
2023-04-02T11:38:15.002Z,28.96
2023-04-02T11:39:17.419Z,28.62
2023-04-02T11:40:15.157Z,31.62
2023-04-02T11:41:15.233Z,29.07
2023-04-02T11:42:15.232Z,25.00
2023-04-02T11:43:15.245Z,25.70
2023-04-02T11:44:15.323Z,27.73
2023-04-02T11:45:15.347Z,28.49
2023-04-02T11:46:15.406Z,28.86
2023-04-02T11:47:15.394Z,28.35
2023-04-02T11:48:15.466Z,19.97
2023-04-02T11:49:15.473Z,21.76
2023-04-02T11:50:15.500Z,24.95
2023-04-02T11:51:15.492Z,26.32
2023-04-02T11:52:15.544Z,33.30
2023-04-02T11:53:15.543Z,24.27
2023-04-02T11:54:15.645Z,20.64
2023-04-02T11:55:15.626Z,25.50
2023-04-02T11:56:15.666Z,24.35
2023-04-02T11:57:15.798Z,25.83
2023-04-02T11:58:15.747Z,26.33
2023-04-02T11:59:15.763Z,23.27
2023-04-02T12:00:17.968Z,22.38
2023-04-02T12:01:15.860Z,30.94
2023-04-02T12:02:15.891Z,32.81
2023-04-02T12:03:15.997Z,28.99
2023-04-02T12:04:15.914Z,33.49
2023-04-02T12:05:15.962Z,34.06
2023-04-02T12:06:15.995Z,33.12
2023-04-02T12:07:16.038Z,35.89
2023-04-02T12:08:16.049Z,32.38
2023-04-02T12:09:16.123Z,27.09
2023-04-02T12:10:16.112Z,23.24
2023-04-02T12:11:16.133Z,23.20
2023-04-02T12:12:16.159Z,26.44
2023-04-02T12:13:16.217Z,29.09
2023-04-02T12:14:16.245Z,32.82
2023-04-02T12:15:16.289Z,30.52
2023-04-02T12:16:16.332Z,30.29
2023-04-02T12:17:16.449Z,22.15
2023-04-02T12:18:16.384Z,24.78
2023-04-02T12:19:16.415Z,25.26
2023-04-02T12:20:16.435Z,26.67
2023-04-02T12:21:16.496Z,29.21
2023-04-02T12:22:16.556Z,32.25
2023-04-02T12:23:16.613Z,34.92
2023-04-02T12:24:16.616Z,29.94
2023-04-02T12:25:16.617Z,29.10
2023-04-02T12:26:16.692Z,29.15
2023-04-02T12:27:16.712Z,33.00
2023-04-02T12:28:16.745Z,29.83
2023-04-02T12:29:16.788Z,24.60
2023-04-02T12:30:16.789Z,16.31
2023-04-02T12:31:16.944Z,15.21
2023-04-02T12:32:16.870Z,24.65
2023-04-02T12:33:16.923Z,44.52
2023-04-02T12:34:16.952Z,38.61
2023-04-02T12:35:16.941Z,26.89
2023-04-02T12:36:17.083Z,22.20
2023-04-02T12:37:17.019Z,26.64
2023-04-02T12:38:17.042Z,31.85
2023-04-02T12:39:17.093Z,33.62
2023-04-02T12:40:17.149Z,29.41
2023-04-02T12:41:17.151Z,25.78
2023-04-02T12:42:17.213Z,29.59